Time;durP1;ratioP1;P1;durP2;ratioP2;P2;SDS_P1;SDS_P2;PMS_P1;PMS_P2;Temp;Humidity;BMP_temperature;BMP_pressure;BME280_temperature;BME280_humidity;BME280_pressure;Samples;Min_cycle;Max_cycle;Signal;HPM_P1;HPM_P2
2024/01/17 00:02:00;;;;;;;9.90;5.47;;;0.30;99.90;;;;;;5024753;28;20198;-63
2024/01/17 00:04:28;;;;;;;8.53;5.27;;;0.30;99.90;;;;;;5029936;28;20296;-66
2024/01/17 00:06:55;;;;;;;9.73;6.10;;;0.30;99.90;;;;;;5040813;28;20970;-65
2024/01/17 00:09:22;;;;;;;10.27;6.10;;;0.30;99.90;;;;;;5006916;28;20207;-65
2024/01/17 00:11:50;;;;;;;7.77;5.23;;;0.40;99.90;;;;;;5035293;28;20206;-65
2024/01/17 00:14:18;;;;;;;13.90;5.47;;;0.30;99.90;;;;;;5022506;28;20222;-65
2024/01/17 00:16:45;;;;;;;15.43;5.93;;;-0.20;99.90;;;;;;5020108;28;20207;-65
2024/01/17 00:19:12;;;;;;;14.70;5.70;;;0.30;99.90;;;;;;5028450;28;20217;-65
2024/01/17 00:21:39;;;;;;;8.57;5.60;;;0.40;99.90;;;;;;5038707;28;20202;-66
2024/01/17 00:24:06;;;;;;;11.60;5.57;;;0.30;99.90;;;;;;5004282;28;20202;-63
2024/01/17 00:26:33;;;;;;;7.63;5.50;;;0.20;99.90;;;;;;5040339;28;20318;-64
2024/01/17 00:28:59;;;;;;;7.87;5.33;;;-0.10;99.90;;;;;;5033857;28;20238;-64
2024/01/17 00:31:28;;;;;;;10.20;5.27;;;0.30;99.90;;;;;;5021304;28;20804;-64
2024/01/17 00:33:55;;;;;;;8.33;4.77;;;0.30;99.90;;;;;;5028917;28;20247;-64
2024/01/17 00:36:21;;;;;;;6.87;4.93;;;0.30;99.90;;;;;;5033643;28;20221;-64
2024/01/17 00:38:48;;;;;;;10.07;5.30;;;0.30;99.90;;;;;;5041145;28;20223;-64
2024/01/17 00:41:15;;;;;;;10.73;4.97;;;0.30;99.90;;;;;;4996671;28;20313;-64
2024/01/17 00:43:42;;;;;;;8.17;4.03;;;0.30;99.90;;;;;;5044793;28;20839;-64
2024/01/17 00:46:09;;;;;;;6.27;4.73;;;0.30;99.90;;;;;;5016797;28;20233;-65
2024/01/17 00:48:37;;;;;;;8.97;4.83;;;0.30;99.90;;;;;;5027853;28;20230;-65
2024/01/17 00:51:05;;;;;;;7.83;4.37;;;0.30;99.90;;;;;;5038277;28;20575;-64
2024/01/17 00:53:32;;;;;;;6.80;4.80;;;0.30;99.90;;;;;;5035135;28;20203;-64
2024/01/17 00:55:58;;;;;;;8.43;5.23;;;0.30;99.90;;;;;;5004305;28;20234;-64
2024/01/17 00:58:25;;;;;;;6.50;4.90;;;0.30;99.90;;;;;;5036000;28;20202;-64
2024/01/17 01:00:52;;;;;;;11.07;4.77;;;0.30;99.90;;;;;;5001963;28;20206;-63
2024/01/17 01:03:19;;;;;;;9.00;4.83;;;0.20;99.90;;;;;;5003488;28;20743;-64
2024/01/17 01:05:47;;;;;;;9.70;5.10;;;0.20;99.90;;;;;;5026282;28;20208;-64
2024/01/17 01:08:14;;;;;;;8.23;5.03;;;0.20;99.90;;;;;;5041422;28;20238;-65
2024/01/17 01:10:42;;;;;;;7.30;4.20;;;;;;;;;;5010707;28;20211;-64
2024/01/17 01:13:08;;;;;;;5.93;4.50;;;0.10;99.90;;;;;;5034977;28;20203;-64
2024/01/17 01:15:35;;;;;;;9.83;4.40;;;0.40;99.90;;;;;;5038501;28;20206;-64
2024/01/17 01:18:02;;;;;;;8.10;4.50;;;0.10;99.90;;;;;;5030057;28;20207;-64
2024/01/17 01:20:29;;;;;;;11.93;4.93;;;0.00;99.90;;;;;;5030452;28;20227;-64
2024/01/17 01:22:57;;;;;;;7.33;4.10;;;-0.40;99.90;;;;;;5041604;28;20293;-64
2024/01/17 01:25:25;;;;;;;7.27;4.47;;;0.10;99.90;;;;;;5009625;28;20211;-64
2024/01/17 01:27:52;;;;;;;8.23;4.53;;;-0.30;99.90;;;;;;5025376;28;20256;-64
2024/01/17 01:30:19;;;;;;;6.30;4.50;;;0.10;99.90;;;;;;5041762;28;20216;-64
2024/01/17 01:32:46;;;;;;;5.10;4.23;;;-0.20;99.90;;;;;;5027870;28;20309;-64
2024/01/17 01:35:13;;;;;;;10.40;4.60;;;0.10;99.90;;;;;;5033469;28;20686;-64
2024/01/17 01:37:40;;;;;;;6.97;4.63;;;;;;;;;;5029311;28;21711;-64
2024/01/17 01:40:10;;;;;;;9.77;4.93;;;0.20;99.90;;;;;;5007471;28;20335;-64
2024/01/17 01:42:38;;;;;;;9.73;5.07;;;0.00;99.90;;;;;;5022825;28;20213;-64
2024/01/17 01:45:06;;;;;;;9.87;5.50;;;0.10;99.90;;;;;;5033394;28;20205;-64
2024/01/17 01:47:33;;;;;;;9.03;5.70;;;0.10;99.90;;;;;;5029239;28;20241;-64
2024/01/17 01:50:00;;;;;;;7.57;4.77;;;0.10;99.90;;;;;;5026921;28;21403;-64
2024/01/17 01:52:27;;;;;;;10.13;5.33;;;-0.10;99.90;;;;;;5031490;28;20221;-64
2024/01/17 01:54:55;;;;;;;6.63;5.13;;;0.00;99.90;;;;;;5033285;28;20205;-64
2024/01/17 01:57:24;;;;;;;10.87;6.37;;;0.00;99.90;;;;;;5007031;28;20220;-64
2024/01/17 01:59:51;;;;;;;7.70;5.53;;;0.00;99.90;;;;;;5026047;28;20214;-64
2024/01/17 02:02:18;;;;;;;8.70;5.53;;;0.00;99.90;;;;;;5027226;28;20206;-63
2024/01/17 02:04:46;;;;;;;8.93;5.10;;;0.00;99.90;;;;;;5025496;28;20672;-64
2024/01/17 02:07:15;;;;;;;10.50;5.83;;;0.00;99.90;;;;;;5036384;28;20214;-64
2024/01/17 02:09:44;;;;;;;9.10;6.07;;;0.00;99.90;;;;;;5038327;28;20202;-64
2024/01/17 02:12:11;;;;;;;12.40;6.20;;;0.10;99.90;;;;;;5005225;28;20211;-64
2024/01/17 02:14:42;;;;;;;16.07;6.47;;;0.00;99.90;;;;;;5032217;28;20669;-64
2024/01/17 02:17:09;;;;;;;11.00;6.67;;;-0.10;99.90;;;;;;5033937;28;20937;-64
2024/01/17 02:19:37;;;;;;;10.87;5.57;;;0.00;99.90;;;;;;5039220;28;20203;-64
2024/01/17 02:22:04;;;;;;;10.87;5.60;;;0.00;99.90;;;;;;5019346;28;20369;-64
2024/01/17 02:24:32;;;;;;;12.50;6.27;;;0.00;99.90;;;;;;5042573;28;20967;-64
2024/01/17 02:27:00;;;;;;;8.80;5.90;;;0.00;99.90;;;;;;5037426;28;20358;-63
2024/01/17 02:29:28;;;;;;;9.60;5.80;;;0.00;99.90;;;;;;5005342;28;20203;-64
2024/01/17 02:31:55;;;;;;;7.67;5.60;;;0.00;99.90;;;;;;5026930;28;20715;-64
2024/01/17 02:34:23;;;;;;;9.17;5.77;;;0.00;99.90;;;;;;5029903;28;20209;-63
2024/01/17 02:36:50;;;;;;;7.27;5.37;;;0.00;99.90;;;;;;5010385;28;20200;-64
2024/01/17 02:39:16;;;;;;;8.60;6.03;;;0.00;99.90;;;;;;5024623;28;20237;-64
2024/01/17 02:41:45;;;;;;;13.83;5.73;;;-0.10;99.90;;;;;;5029351;28;20207;-64
2024/01/17 02:44:12;;;;;;;13.27;5.63;;;0.00;99.90;;;;;;5005694;28;20221;-64
2024/01/17 02:46:38;;;;;;;8.90;5.77;;;0.00;99.90;;;;;;5032564;28;20231;-64
2024/01/17 02:49:05;;;;;;;14.47;6.57;;;0.00;99.90;;;;;;5025298;28;20593;-64
2024/01/17 02:51:32;;;;;;;12.83;5.97;;;-0.10;99.90;;;;;;5028283;28;20590;-63
2024/01/17 02:53:59;;;;;;;11.93;6.07;;;;;;;;;;5022108;28;20207;-64
2024/01/17 02:56:26;;;;;;;7.43;5.63;;;0.00;99.90;;;;;;5030724;28;20626;-64
2024/01/17 02:58:55;;;;;;;11.03;5.97;;;0.00;99.90;;;;;;5005988;28;20679;-63
2024/01/17 03:01:21;;;;;;;9.77;5.73;;;0.00;99.90;;;;;;5028918;28;20230;-63
2024/01/17 03:03:49;;;;;;;9.47;6.47;;;0.00;99.90;;;;;;5024648;28;20585;-64
2024/01/17 03:06:18;;;;;;;10.37;6.33;;;0.00;99.90;;;;;;5032092;28;20211;-64
2024/01/17 03:08:45;;;;;;;11.33;6.60;;;-0.10;99.90;;;;;;5021236;28;20235;-63
2024/01/17 03:11:11;;;;;;;9.83;5.67;;;-0.10;99.90;;;;;;5022543;28;20756;-63
2024/01/17 03:13:38;;;;;;;13.67;7.30;;;0.00;99.90;;;;;;5030352;28;20203;-63
2024/01/17 03:16:07;;;;;;;9.83;5.20;;;-0.10;99.90;;;;;;5008035;28;20569;-64
2024/01/17 03:18:33;;;;;;;12.43;6.20;;;-0.10;99.90;;;;;;5021657;28;20206;-64
2024/01/17 03:21:05;;;;;;;9.53;6.13;;;0.00;99.90;;;;;;5032942;28;20202;-64
2024/01/17 03:23:32;;;;;;;9.57;6.53;;;0.00;99.90;;;;;;5015160;28;20255;-64
2024/01/17 03:25:58;;;;;;;8.37;5.60;;;0.00;99.90;;;;;;5021054;28;20214;-64
2024/01/17 03:28:26;;;;;;;12.87;5.67;;;0.00;99.90;;;;;;5028413;28;20223;-64
2024/01/17 03:30:53;;;;;;;8.97;5.83;;;0.10;99.90;;;;;;5005634;28;20749;-64
2024/01/17 03:33:21;;;;;;;9.30;5.83;;;0.00;99.90;;;;;;5033617;28;20217;-63
2024/01/17 03:35:48;;;;;;;13.07;6.20;;;0.00;99.90;;;;;;5024676;28;20231;-63
2024/01/17 03:38:18;;;;;;;9.83;5.97;;;-0.10;99.90;;;;;;5019742;28;20212;-63
2024/01/17 03:40:45;;;;;;;10.33;5.87;;;0.50;99.90;;;;;;5023011;28;20211;-63
2024/01/17 03:43:12;;;;;;;9.90;6.20;;;-0.20;99.90;;;;;;5033445;28;20207;-63
2024/01/17 03:45:39;;;;;;;12.67;5.27;;;-0.10;99.90;;;;;;4991365;28;20980;-63
2024/01/17 03:48:07;;;;;;;8.00;5.80;;;0.20;99.90;;;;;;5036506;28;20222;-64
2024/01/17 03:50:34;;;;;;;6.93;5.40;;;-0.10;99.90;;;;;;5025081;28;20206;-63
2024/01/17 03:53:01;;;;;;;10.63;6.33;;;0.70;99.90;;;;;;5034138;28;20209;-63
2024/01/17 03:55:28;;;;;;;10.30;6.57;;;;;;;;;;5005918;28;20321;-63
2024/01/17 03:57:55;;;;;;;15.27;6.93;;;-0.20;99.90;;;;;;5029216;28;20218;-64
2024/01/17 04:00:22;;;;;;;15.83;7.00;;;-0.10;99.90;;;;;;5023980;28;20207;-63
2024/01/17 04:02:49;;;;;;;10.90;6.67;;;-0.10;99.90;;;;;;5009742;28;20213;-64
2024/01/17 04:05:19;;;;;;;8.87;5.33;;;0.00;99.90;;;;;;5029629;28;20212;-64
2024/01/17 04:07:47;;;;;;;9.40;6.20;;;0.00;99.90;;;;;;5040905;28;20223;-63
2024/01/17 04:10:15;;;;;;;11.47;6.00;;;0.90;99.90;;;;;;5023989;28;20206;-64
2024/01/17 04:12:42;;;;;;;11.87;6.03;;;0.00;99.90;;;;;;5030479;28;20217;-64
2024/01/17 04:15:09;;;;;;;8.90;5.87;;;0.00;99.90;;;;;;5034598;28;20674;-64
2024/01/17 04:17:36;;;;;;;5.63;4.30;;;0.00;99.90;;;;;;5011846;28;20711;-64
2024/01/17 04:20:05;;;;;;;9.03;5.47;;;1.90;99.90;;;;;;5036785;28;20199;-64
2024/01/17 04:22:33;;;;;;;9.10;4.90;;;0.00;99.90;;;;;;5029618;28;20211;-64
2024/01/17 04:25:01;;;;;;;15.80;6.03;;;-0.10;99.90;;;;;;5015695;28;20687;-64
2024/01/17 04:27:29;;;;;;;10.80;5.33;;;0.00;99.90;;;;;;5029223;28;20440;-64
2024/01/17 04:29:56;;;;;;;9.03;5.30;;;-0.10;99.90;;;;;;5027249;28;20687;-64
2024/01/17 04:32:22;;;;;;;10.93;4.97;;;-0.40;99.90;;;;;;5009574;28;20860;-63
2024/01/17 04:34:49;;;;;;;8.50;5.27;;;0.00;99.90;;;;;;5033164;28;20227;-63
2024/01/17 04:37:17;;;;;;;10.90;5.93;;;-0.10;99.90;;;;;;5032618;28;21587;-63
2024/01/17 04:39:44;;;;;;;12.87;5.77;;;0.00;99.90;;;;;;5035149;28;20683;-63
2024/01/17 04:42:12;;;;;;;7.63;5.10;;;0.00;99.90;;;;;;5005623;28;20206;-63
2024/01/17 04:44:39;;;;;;;8.27;5.33;;;0.20;99.90;;;;;;5033372;28;20206;-63
2024/01/17 04:47:06;;;;;;;10.77;5.90;;;-0.90;99.90;;;;;;4997683;28;20330;-64
2024/01/17 04:49:33;;;;;;;11.53;5.23;;;0.60;99.90;;;;;;5028279;28;20234;-63
2024/01/17 04:52:00;;;;;;;9.63;5.77;;;-0.20;99.90;;;;;;5030248;28;20729;-63
2024/01/17 04:54:30;;;;;;;10.37;5.23;;;-0.10;99.90;;;;;;5033072;28;20585;-64
2024/01/17 04:56:57;;;;;;;8.37;5.10;;;-0.10;99.90;;;;;;5014172;28;20247;-64
2024/01/17 04:59:27;;;;;;;5.60;4.57;;;0.00;99.90;;;;;;5031069;28;21658;-64
2024/01/17 05:01:54;;;;;;;8.07;4.80;;;-0.10;99.90;;;;;;5012146;28;20207;-63
2024/01/17 05:04:22;;;;;;;7.13;4.40;;;0.10;99.90;;;;;;5005984;28;20218;-64
2024/01/17 05:06:49;;;;;;;9.33;4.80;;;0.10;99.90;;;;;;5044486;28;20827;-63
2024/01/17 05:09:17;;;;;;;7.87;4.97;;;0.00;99.90;;;;;;5036407;28;20848;-64
2024/01/17 05:11:44;;;;;;;5.57;4.10;;;-0.10;99.90;;;;;;5032515;28;21022;-64
2024/01/17 05:14:13;;;;;;;7.30;4.20;;;0.00;99.90;;;;;;5027540;28;20305;-63
2024/01/17 05:16:42;;;;;;;7.07;4.60;;;0.00;99.90;;;;;;5021808;28;20211;-63
2024/01/17 05:19:09;;;;;;;9.47;4.10;;;-0.10;99.90;;;;;;4994196;28;20215;-63
2024/01/17 05:21:36;;;;;;;6.50;4.47;;;-0.10;99.90;;;;;;5036940;28;20213;-63
2024/01/17 05:24:02;;;;;;;11.47;5.40;;;0.80;99.90;;;;;;5030730;28;20208;-64
2024/01/17 05:26:29;;;;;;;6.70;4.90;;;;;;;;;;5037909;28;20678;-64
2024/01/17 05:28:56;;;;;;;6.80;4.60;;;-0.90;99.90;;;;;;5004739;28;20229;-63
2024/01/17 05:31:23;;;;;;;9.53;4.73;;;-0.10;99.90;;;;;;5032958;28;20204;-63
2024/01/17 05:33:51;;;;;;;9.63;4.57;;;1.30;99.90;;;;;;5027612;28;20204;-63
2024/01/17 05:36:18;;;;;;;11.10;5.47;;;-0.10;99.90;;;;;;5005879;28;20225;-64
2024/01/17 05:38:45;;;;;;;7.93;4.77;;;-0.20;99.90;;;;;;5009965;28;20231;-63
2024/01/17 05:41:12;;;;;;;11.47;4.43;;;-0.20;99.90;;;;;;5036190;28;20215;-63
2024/01/17 05:43:39;;;;;;;6.27;4.27;;;-0.20;99.90;;;;;;5008444;28;20245;-63
2024/01/17 05:46:05;;;;;;;7.93;4.37;;;-0.20;99.90;;;;;;5029621;28;20992;-63
2024/01/17 05:48:32;;;;;;;6.10;3.67;;;-0.20;99.90;;;;;;5022487;28;20227;-64
2024/01/17 05:51:01;;;;;;;6.37;4.00;;;-0.20;99.90;;;;;;5006307;28;20214;-64
2024/01/17 05:53:27;;;;;;;9.83;4.17;;;-0.30;99.90;;;;;;5021718;28;20227;-64
2024/01/17 05:55:54;;;;;;;4.97;3.90;;;-0.10;99.90;;;;;;5017195;28;20213;-64
2024/01/17 05:58:21;;;;;;;13.40;3.97;;;;;;;;;;5014870;28;20211;-63
2024/01/17 06:00:48;;;;;;;7.03;3.70;;;-0.20;99.90;;;;;;5013120;28;20211;-63
2024/01/17 06:03:15;;;;;;;9.80;4.00;;;-0.20;99.90;;;;;;5023033;28;20199;-63
2024/01/17 06:05:42;;;;;;;8.17;4.00;;;;;;;;;;4995911;28;20232;-64
2024/01/17 06:08:11;;;;;;;5.10;3.50;;;-0.20;99.90;;;;;;5014896;28;21137;-63
2024/01/17 06:10:40;;;;;;;5.60;3.87;;;-0.20;99.90;;;;;;5009364;28;20323;-63
2024/01/17 06:13:08;;;;;;;18.63;4.13;;;-0.20;99.90;;;;;;5022422;28;20709;-64
2024/01/17 06:15:34;;;;;;;7.03;3.80;;;-0.20;99.90;;;;;;5027947;28;20895;-64
2024/01/17 06:18:01;;;;;;;7.10;4.03;;;-0.20;99.90;;;;;;5040271;28;20299;-64
2024/01/17 06:20:28;;;;;;;4.87;3.40;;;-0.20;99.90;;;;;;5029959;28;20809;-64
2024/01/17 06:22:55;;;;;;;9.77;4.23;;;-0.90;99.90;;;;;;5003843;28;20214;-63
2024/01/17 06:25:23;;;;;;;5.23;3.90;;;-0.20;99.90;;;;;;5020965;28;20293;-64
2024/01/17 06:27:50;;;;;;;6.03;3.77;;;;;;;;;;5016555;28;20224;-64
2024/01/17 06:30:18;;;;;;;5.03;3.47;;;-0.20;99.90;;;;;;5014431;28;20224;-64
2024/01/17 06:32:45;;;;;;;8.50;4.00;;;;;;;;;;5040399;28;20200;-64
2024/01/17 06:35:12;;;;;;;6.87;3.83;;;-0.20;99.90;;;;;;5042223;28;20195;-63
2024/01/17 06:37:38;;;;;;;5.67;3.97;;;-0.20;99.90;;;;;;4999570;28;20529;-63
2024/01/17 06:40:08;;;;;;;7.47;3.73;;;-0.20;99.90;;;;;;5024589;28;20677;-64
2024/01/17 06:42:36;;;;;;;5.87;4.10;;;-0.10;99.90;;;;;;5031018;28;20857;-63
2024/01/17 06:45:03;;;;;;;6.17;3.70;;;0.00;99.90;;;;;;5014271;28;20207;-64
2024/01/17 06:47:29;;;;;;;5.93;4.03;;;-0.10;99.90;;;;;;5035849;28;20246;-64
2024/01/17 06:49:56;;;;;;;7.80;3.73;;;-0.10;99.90;;;;;;5029829;28;20230;-63
2024/01/17 06:52:24;;;;;;;6.97;4.13;;;-0.10;99.90;;;;;;4997828;28;21887;-63
2024/01/17 06:54:51;;;;;;;5.33;3.80;;;-0.10;99.90;;;;;;5034940;28;20203;-64
2024/01/17 06:57:18;;;;;;;6.93;3.70;;;-0.20;99.90;;;;;;5009490;28;20725;-63
2024/01/17 06:59:46;;;;;;;6.73;4.67;;;-0.30;99.90;;;;;;5028915;28;20221;-64
2024/01/17 07:02:13;;;;;;;5.40;3.93;;;-0.40;99.90;;;;;;5001732;28;20199;-63
2024/01/17 07:04:41;;;;;;;4.70;3.70;;;-0.30;99.90;;;;;;5037150;28;20685;-64
2024/01/17 07:07:08;;;;;;;6.17;4.03;;;-0.30;99.90;;;;;;5026413;28;20668;-64
2024/01/17 07:09:35;;;;;;;9.47;3.73;;;0.40;99.90;;;;;;5005473;28;20238;-63
2024/01/17 07:12:02;;;;;;;9.67;5.50;;;0.50;99.90;;;;;;5020414;28;20224;-63
2024/01/17 07:14:29;;;;;;;5.63;4.20;;;0.60;99.90;;;;;;5024765;28;20589;-64
2024/01/17 07:16:57;;;;;;;5.60;3.57;;;0.30;99.90;;;;;;5025762;28;20579;-63
2024/01/17 07:19:24;;;;;;;8.60;4.70;;;0.30;99.90;;;;;;5026637;28;20286;-63
2024/01/17 07:21:51;;;;;;;7.27;4.23;;;0.00;99.90;;;;;;5043085;28;20200;-63
2024/01/17 07:24:18;;;;;;;8.73;3.70;;;-0.10;99.90;;;;;;4997165;28;20236;-64
2024/01/17 07:26:45;;;;;;;7.20;4.20;;;-0.10;99.90;;;;;;5037813;28;20294;-64
2024/01/17 07:29:12;;;;;;;5.27;4.27;;;-0.20;99.90;;;;;;5038099;28;20246;-63
2024/01/17 07:31:39;;;;;;;5.57;4.00;;;-0.20;99.90;;;;;;5021945;28;20207;-63
2024/01/17 07:34:07;;;;;;;6.63;4.20;;;-0.20;99.90;;;;;;5029517;28;20233;-63
2024/01/17 07:36:34;;;;;;;6.23;4.17;;;-0.30;99.90;;;;;;5045873;28;20321;-63
2024/01/17 07:39:02;;;;;;;8.47;4.63;;;-0.20;99.90;;;;;;5028782;28;20214;-64
2024/01/17 07:41:29;;;;;;;8.50;4.10;;;-0.20;99.90;;;;;;5029088;28;20508;-63
2024/01/17 07:43:56;;;;;;;12.90;4.33;;;-0.30;99.90;;;;;;5043615;28;20200;-63
2024/01/17 07:46:23;;;;;;;7.17;4.07;;;-0.50;99.90;;;;;;5042004;28;20547;-63
2024/01/17 07:48:49;;;;;;;6.20;3.90;;;-0.30;99.90;;;;;;5019805;28;20725;-64
2024/01/17 07:51:18;;;;;;;10.50;5.00;;;-1.10;99.90;;;;;;5036511;28;20208;-64
2024/01/17 07:53:44;;;;;;;6.63;4.07;;;-0.30;99.90;;;;;;5041906;28;20226;-64
2024/01/17 07:56:11;;;;;;;6.47;4.70;;;-3.70;99.90;;;;;;5004531;28;20746;-64
2024/01/17 07:58:38;;;;;;;11.73;4.73;;;-0.30;99.90;;;;;;5043122;28;20236;-64
2024/01/17 08:01:06;;;;;;;6.10;4.80;;;0.80;99.90;;;;;;5042633;28;20570;-64
2024/01/17 08:03:33;;;;;;;8.87;4.43;;;-0.30;99.90;;;;;;5029079;28;20625;-64
2024/01/17 08:05:59;;;;;;;7.30;3.70;;;-0.30;99.90;;;;;;5027887;28;20204;-64
2024/01/17 08:08:28;;;;;;;7.27;4.13;;;-0.30;99.90;;;;;;5042901;28;20244;-64
2024/01/17 08:10:55;;;;;;;7.27;4.43;;;-0.20;99.90;;;;;;5040894;28;20737;-64
2024/01/17 08:13:22;;;;;;;10.33;4.60;;;-0.30;99.90;;;;;;5016314;28;21520;-64
2024/01/17 08:15:49;;;;;;;6.87;4.67;;;-0.30;99.90;;;;;;5047958;28;20196;-64
2024/01/17 08:18:16;;;;;;;5.73;4.00;;;-0.30;99.90;;;;;;5029237;28;20406;-64
2024/01/17 08:20:43;;;;;;;10.73;4.90;;;-0.30;99.90;;;;;;5032425;28;20231;-64
2024/01/17 08:23:10;;;;;;;8.53;4.17;;;-0.20;99.90;;;;;;5037276;28;20382;-64
2024/01/17 08:25:38;;;;;;;7.47;4.57;;;-0.20;99.90;;;;;;5035247;28;20219;-64
2024/01/17 08:28:06;;;;;;;6.40;4.43;;;;;;;;;;5008820;28;20221;-64
2024/01/17 08:30:33;;;;;;;7.50;4.43;;;-0.30;99.90;;;;;;5037050;28;20232;-64
2024/01/17 08:33:00;;;;;;;11.20;4.67;;;;;;;;;;5029411;28;20238;-64
2024/01/17 08:35:27;;;;;;;6.57;4.20;;;-0.30;99.90;;;;;;5002787;28;20841;-64
2024/01/17 08:37:53;;;;;;;6.83;4.33;;;-0.10;99.90;;;;;;5046697;28;20192;-64
2024/01/17 08:40:20;;;;;;;11.80;4.67;;;-0.20;99.90;;;;;;5027456;28;20202;-64
2024/01/17 08:42:48;;;;;;;7.23;5.03;;;-0.40;99.90;;;;;;5008887;28;20199;-64
2024/01/17 08:45:18;;;;;;;7.30;5.30;;;-0.40;99.90;;;;;;5031754;28;20232;-64
2024/01/17 08:47:45;;;;;;;6.07;3.90;;;-0.40;99.90;;;;;;5038870;28;20312;-64
2024/01/17 08:50:13;;;;;;;8.27;4.80;;;-0.40;99.90;;;;;;5013581;28;20235;-64
2024/01/17 08:52:40;;;;;;;10.17;6.10;;;-0.20;99.90;;;;;;5042346;28;20227;-64
2024/01/17 08:55:08;;;;;;;8.43;5.10;;;-0.40;99.90;;;;;;5042135;28;20494;-64
2024/01/17 08:57:37;;;;;;;7.77;4.70;;;-0.40;99.90;;;;;;5045597;28;20200;-64
2024/01/17 09:00:06;;;;;;;6.97;4.10;;;-0.40;99.90;;;;;;5007615;28;20207;-64
2024/01/17 09:02:34;;;;;;;8.30;4.33;;;-0.50;99.90;;;;;;5041977;28;20204;-64
2024/01/17 09:05:01;;;;;;;6.33;5.00;;;-0.50;99.90;;;;;;5010781;28;20280;-64
2024/01/17 09:07:28;;;;;;;7.07;4.77;;;-0.50;99.90;;;;;;5038417;28;21214;-64
2024/01/17 09:09:55;;;;;;;9.70;5.07;;;-0.80;99.90;;;;;;5034404;28;20662;-64
2024/01/17 09:12:22;;;;;;;6.83;4.70;;;-0.50;99.90;;;;;;5042398;28;20209;-64
2024/01/17 09:14:50;;;;;;;10.13;5.00;;;-0.40;99.90;;;;;;4998551;28;20218;-65
2024/01/17 09:17:18;;;;;;;13.23;5.33;;;-0.50;99.90;;;;;;5044674;28;20679;-64
2024/01/17 09:19:46;;;;;;;7.70;3.87;;;-0.50;99.90;;;;;;5038203;28;20225;-64
2024/01/17 09:22:13;;;;;;;6.17;4.43;;;-0.50;99.90;;;;;;5024004;28;20430;-64
2024/01/17 09:24:41;;;;;;;8.83;4.80;;;-1.90;99.90;;;;;;5038615;28;20208;-64
2024/01/17 09:27:08;;;;;;;6.07;4.13;;;-2.00;99.90;;;;;;5037859;28;20654;-64
2024/01/17 09:29:35;;;;;;;6.03;4.50;;;-0.50;99.90;;;;;;5011587;28;20541;-64
2024/01/17 09:32:02;;;;;;;9.60;4.93;;;-0.60;99.90;;;;;;5036613;28;20249;-64
2024/01/17 09:34:32;;;;;;;7.10;5.03;;;0.10;99.90;;;;;;5039678;28;20199;-64
2024/01/17 09:37:00;;;;;;;8.60;4.37;;;-0.50;99.90;;;;;;5026311;28;20217;-65
2024/01/17 09:39:28;;;;;;;12.87;4.70;;;0.30;99.90;;;;;;5040572;28;20824;-64
2024/01/17 09:41:55;;;;;;;6.07;4.17;;;-0.60;99.90;;;;;;5041105;28;20201;-64
2024/01/17 09:44:22;;;;;;;7.07;4.47;;;-0.50;99.90;;;;;;5004400;28;20866;-64
2024/01/17 09:46:51;;;;;;;7.00;4.90;;;-0.50;99.90;;;;;;5037210;28;20232;-64
2024/01/17 09:49:18;;;;;;;7.83;4.13;;;-0.40;99.90;;;;;;5039200;28;20198;-64
2024/01/17 09:51:47;;;;;;;10.13;3.90;;;-0.50;99.90;;;;;;5043690;28;20271;-64
2024/01/17 09:54:15;;;;;;;7.33;4.50;;;-0.40;99.90;;;;;;5021560;28;20213;-64
2024/01/17 09:56:43;;;;;;;7.23;4.23;;;-0.40;99.90;;;;;;5046128;28;20291;-64
2024/01/17 09:59:16;;;;;;;4.53;3.33;;;-0.40;99.90;;;;;;5043717;28;20199;-64
2024/01/17 10:01:44;;;;;;;6.60;4.37;;;-0.30;99.90;;;;;;5011780;28;20374;-64
2024/01/17 10:04:13;;;;;;;8.00;4.20;;;-0.30;99.90;;;;;;5036152;28;20340;-65
2024/01/17 10:06:43;;;;;;;9.53;4.57;;;-0.30;99.90;;;;;;5041376;28;20208;-65
2024/01/17 10:09:11;;;;;;;7.23;4.00;;;-0.30;99.90;;;;;;5024826;28;21222;-64
2024/01/17 10:11:38;;;;;;;8.50;3.87;;;-0.30;99.90;;;;;;5039331;28;20229;-64
2024/01/17 10:14:05;;;;;;;8.97;4.73;;;-0.90;99.90;;;;;;5033716;28;20202;-64
2024/01/17 10:16:32;;;;;;;8.07;4.67;;;-0.20;99.90;;;;;;5007248;28;20203;-64
2024/01/17 10:19:00;;;;;;;7.80;4.60;;;-0.20;99.90;;;;;;5038370;28;20767;-64
2024/01/17 10:21:27;;;;;;;7.37;4.43;;;-0.20;99.90;;;;;;5039177;28;20204;-64
2024/01/17 10:23:53;;;;;;;8.03;4.63;;;-0.20;99.90;;;;;;5036118;28;20200;-64
2024/01/17 10:26:22;;;;;;;7.67;4.07;;;-0.20;99.90;;;;;;5024879;28;20203;-64
2024/01/17 10:28:49;;;;;;;4.80;3.33;;;-0.10;99.90;;;;;;5045383;28;20203;-64
2024/01/17 10:31:16;;;;;;;6.03;3.97;;;0.10;99.90;;;;;;5014312;28;20405;-65
2024/01/17 10:33:43;;;;;;;7.33;4.70;;;-0.10;99.90;;;;;;5037515;28;20206;-64
2024/01/17 10:36:12;;;;;;;5.67;4.20;;;-0.10;99.90;;;;;;5038480;28;20212;-64
2024/01/17 10:38:40;;;;;;;6.60;4.57;;;-0.50;99.90;;;;;;5041549;28;20851;-64
2024/01/17 10:41:07;;;;;;;9.53;4.63;;;-0.10;99.90;;;;;;5023375;28;21248;-65
2024/01/17 10:43:53;;;;;;;13.97;4.93;;;-0.10;99.90;;;;;;5040417;28;20203;-64
2024/01/17 10:46:20;;;;;;;6.77;4.33;;;-0.10;99.90;;;;;;5037845;28;20304;-64
2024/01/17 10:48:47;;;;;;;6.00;4.00;;;-0.10;99.90;;;;;;5013108;28;20208;-64
2024/01/17 10:51:19;;;;;;;7.23;4.53;;;0.00;99.90;;;;;;5036363;28;20725;-64
2024/01/17 10:53:48;;;;;;;4.90;4.10;;;0.00;99.90;;;;;;5042516;28;20207;-64
2024/01/17 10:56:19;;;;;;;7.53;4.03;;;1.00;99.90;;;;;;5023116;28;20217;-64
2024/01/17 10:58:49;;;;;;;6.47;4.57;;;0.10;99.90;;;;;;5041324;28;20211;-64
2024/01/17 11:01:21;;;;;;;7.07;4.23;;;3.90;99.90;;;;;;5038849;28;20279;-64
2024/01/17 11:03:49;;;;;;;9.27;4.73;;;0.10;99.90;;;;;;5007657;28;20307;-64
2024/01/17 11:06:17;;;;;;;8.00;4.13;;;0.20;99.90;;;;;;5041220;28;20788;-64
2024/01/17 11:08:44;;;;;;;7.63;4.17;;;0.30;99.90;;;;;;5041323;28;20202;-64
2024/01/17 11:11:13;;;;;;;9.43;4.50;;;0.20;99.90;;;;;;5026967;28;20225;-64
2024/01/17 11:13:43;;;;;;;10.27;4.33;;;0.30;99.90;;;;;;5037521;28;20302;-64
2024/01/17 11:16:15;;;;;;;7.10;5.00;;;0.30;99.90;;;;;;5036858;28;20205;-64
2024/01/17 11:18:42;;;;;;;8.73;4.17;;;1.30;99.90;;;;;;5009453;28;20202;-64
2024/01/17 11:21:09;;;;;;;6.53;4.37;;;;;;;;;;5037868;28;20206;-64
2024/01/17 11:23:41;;;;;;;6.67;4.33;;;0.40;99.90;;;;;;5038124;28;21047;-64
2024/01/17 11:26:16;;;;;;;8.10;4.50;;;0.70;99.90;;;;;;5039092;28;20911;-64
2024/01/17 11:28:54;;;;;;;11.47;5.60;;;0.40;99.90;;;;;;5023928;28;20205;-64
2024/01/17 11:31:33;;;;;;;7.27;4.33;;;0.50;99.90;;;;;;5039269;28;20830;-65
2024/01/17 11:34:00;;;;;;;7.73;4.37;;;0.50;99.90;;;;;;5011385;28;20359;-64
2024/01/17 11:36:47;;;;;;;5.70;4.37;;;0.60;99.90;;;;;;5036885;28;20202;-64
2024/01/17 11:39:16;;;;;;;9.07;4.70;;;0.50;99.90;;;;;;5038253;28;20317;-64
2024/01/17 11:41:45;;;;;;;9.70;4.30;;;0.60;99.90;;;;;;5028291;28;20591;-64
2024/01/17 11:44:13;;;;;;;13.20;5.30;;;0.60;99.90;;;;;;5013297;28;20287;-64
2024/01/17 11:46:41;;;;;;;6.73;4.60;;;0.60;99.90;;;;;;5024423;28;20230;-64
2024/01/17 11:49:10;;;;;;;6.17;4.33;;;1.50;99.90;;;;;;5012460;28;20190;-65
2024/01/17 11:51:38;;;;;;;5.03;3.40;;;0.60;99.90;;;;;;5033040;28;20225;-64
2024/01/17 11:54:05;;;;;;;7.13;3.77;;;0.70;99.90;;;;;;5028671;28;20214;-64
2024/01/17 11:56:33;;;;;;;11.47;3.77;;;0.60;99.90;;;;;;5030126;28;20640;-64
2024/01/17 11:59:06;;;;;;;8.73;4.03;;;0.60;99.90;;;;;;5023983;28;20209;-64
2024/01/17 12:01:42;;;;;;;8.70;4.07;;;0.60;99.90;;;;;;5026288;28;20928;-64
2024/01/17 12:04:14;;;;;;;9.37;3.87;;;0.70;99.90;;;;;;5032699;28;20236;-64
2024/01/17 12:06:42;;;;;;;8.80;4.37;;;0.70;99.90;;;;;;5005459;28;20209;-64
2024/01/17 12:09:17;;;;;;;6.87;4.10;;;1.60;99.90;;;;;;5033782;28;20563;-64
2024/01/17 12:11:44;;;;;;;14.03;4.00;;;0.70;99.90;;;;;;5021700;28;20432;-64
2024/01/17 12:14:11;;;;;;;6.37;3.90;;;0.60;99.90;;;;;;5016258;28;21751;-64
2024/01/17 12:16:38;;;;;;;5.27;4.10;;;0.60;99.90;;;;;;5015157;28;20199;-65
2024/01/17 12:19:10;;;;;;;6.07;3.77;;;0.70;99.90;;;;;;5022876;28;20229;-64
2024/01/17 12:21:37;;;;;;;6.77;3.83;;;0.70;99.90;;;;;;5008228;28;20206;-64
2024/01/17 12:24:04;;;;;;;8.63;4.43;;;0.70;99.90;;;;;;5036722;28;20600;-64
2024/01/17 12:26:34;;;;;;;8.73;4.83;;;0.70;99.90;;;;;;5036161;28;20309;-64
2024/01/17 12:29:08;;;;;;;6.67;4.00;;;0.70;99.90;;;;;;5027256;28;20195;-64
2024/01/17 12:31:35;;;;;;;9.73;4.20;;;0.70;99.90;;;;;;5028838;28;20803;-64
2024/01/17 12:34:02;;;;;;;5.13;3.40;;;0.70;99.90;;;;;;5031610;28;20193;-64
2024/01/17 12:36:31;;;;;;;5.10;3.73;;;0.70;99.90;;;;;;5001872;28;20256;-65
2024/01/17 12:39:02;;;;;;;4.70;3.43;;;0.70;99.90;;;;;;5032561;28;20207;-64
2024/01/17 12:41:29;;;;;;;9.77;3.83;;;1.20;99.90;;;;;;5036391;28;20345;-64
2024/01/17 12:43:56;;;;;;;7.57;3.93;;;0.70;99.90;;;;;;5038336;28;20202;-65
2024/01/17 12:46:23;;;;;;;17.03;6.73;;;0.70;99.90;;;;;;5011258;28;21202;-65
2024/01/17 12:48:56;;;;;;;9.63;4.03;;;0.70;99.90;;;;;;5022078;28;20204;-64
2024/01/17 12:51:23;;;;;;;8.03;4.17;;;-0.70;99.90;;;;;;5031726;28;20689;-64
2024/01/17 12:53:52;;;;;;;4.87;3.60;;;0.60;99.90;;;;;;5009477;28;20314;-64
2024/01/17 12:56:20;;;;;;;8.33;4.03;;;;;;;;;;5034329;28;20219;-64